sensor_id;sensor_type;location;lat;lon;timestamp;pressure;altitude;pressure_sealevel;temperature;humidity
45541;BME280;31265;49.680;8.608;2024-01-15T00:02:04;99647.88;;;-3.31;100.00
45541;BME280;31265;49.680;8.608;2024-01-15T00:04:36;99639.75;;;-3.31;100.00
45541;BME280;31265;49.680;8.608;2024-01-15T00:07:06;99641.69;;;-3.32;100.00
45541;BME280;31265;49.680;8.608;2024-01-15T00:09:35;99644.59;;;-3.41;100.00
45541;BME280;31265;49.680;8.608;2024-01-15T00:12:05;99637.25;;;-3.35;100.00
45541;BME280;31265;49.680;8.608;2024-01-15T00:14:34;99626.72;;;-3.21;100.00
45541;BME280;31265;49.680;8.608;2024-01-15T00:17:03;99635.78;;;-3.30;100.00
45541;BME280;31265;49.680;8.608;2024-01-15T00:19:31;99632.34;;;-3.31;100.00
45541;BME280;31265;49.680;8.608;2024-01-15T00:22:00;99624.91;;;-3.36;100.00
45541;BME280;31265;49.680;8.608;2024-01-15T00:24:30;99627.25;;;-3.17;100.00
45541;BME280;31265;49.680;8.608;2024-01-15T00:26:59;99631.09;;;-3.30;100.00
45541;BME280;31265;49.680;8.608;2024-01-15T00:29:27;99620.97;;;-3.35;100.00
45541;BME280;31265;49.680;8.608;2024-01-15T00:31:55;99613.63;;;-3.29;100.00
45541;BME280;31265;49.680;8.608;2024-01-15T00:34:24;99601.50;;;-3.33;100.00
45541;BME280;31265;49.680;8.608;2024-01-15T00:36:52;99616.28;;;-3.34;100.00
45541;BME280;31265;49.680;8.608;2024-01-15T00:39:21;99624.16;;;-3.36;100.00
45541;BME280;31265;49.680;8.608;2024-01-15T00:41:51;99614.97;;;-3.44;100.00
45541;BME280;31265;49.680;8.608;2024-01-15T00:44:19;99609.81;;;-3.42;100.00
45541;BME280;31265;49.680;8.608;2024-01-15T00:46:47;99602.91;;;-3.43;100.00
45541;BME280;31265;49.680;8.608;2024-01-15T00:49:16;99601.41;;;-3.44;100.00
45541;BME280;31265;49.680;8.608;2024-01-15T00:51:45;99602.66;;;-3.46;100.00
45541;BME280;31265;49.680;8.608;2024-01-15T00:54:14;99602.66;;;-3.46;100.00
45541;BME280;31265;49.680;8.608;2024-01-15T00:56:43;99592.06;;;-3.43;100.00
45541;BME280;31265;49.680;8.608;2024-01-15T00:59:12;99592.56;;;-3.39;100.00
45541;BME280;31265;49.680;8.608;2024-01-15T01:01:43;99588.34;;;-3.46;100.00
45541;BME280;31265;49.680;8.608;2024-01-15T01:04:14;99596.34;;;-3.31;100.00
45541;BME280;31265;49.680;8.608;2024-01-15T01:06:42;99586.41;;;-3.40;100.00
45541;BME280;31265;49.680;8.608;2024-01-15T01:09:11;99590.13;;;-3.37;100.00
45541;BME280;31265;49.680;8.608;2024-01-15T01:11:39;99585.88;;;-3.44;100.00
45541;BME280;31265;49.680;8.608;2024-01-15T01:14:08;99587.56;;;-3.47;100.00
45541;BME280;31265;49.680;8.608;2024-01-15T01:16:38;99580.88;;;-3.51;100.00
45541;BME280;31265;49.680;8.608;2024-01-15T01:19:07;99586.09;;;-3.48;100.00
45541;BME280;31265;49.680;8.608;2024-01-15T01:21:36;99581.66;;;-3.51;100.00
45541;BME280;31265;49.680;8.608;2024-01-15T01:24:06;99582.78;;;-3.31;100.00
45541;BME280;31265;49.680;8.608;2024-01-15T01:26:35;99575.78;;;-3.43;100.00
45541;BME280;31265;49.680;8.608;2024-01-15T01:29:03;99584.16;;;-3.41;100.00
45541;BME280;31265;49.680;8.608;2024-01-15T01:31:31;99590.69;;;-3.28;100.00
45541;BME280;31265;49.680;8.608;2024-01-15T01:34:01;99584.69;;;-3.37;100.00
45541;BME280;31265;49.680;8.608;2024-01-15T01:36:31;99579.25;;;-3.37;100.00
45541;BME280;31265;49.680;8.608;2024-01-15T01:38:59;99585.22;;;-3.33;100.00
45541;BME280;31265;49.680;8.608;2024-01-15T01:41:28;99584.25;;;-3.30;100.00
45541;BME280;31265;49.680;8.608;2024-01-15T01:43:56;99582.50;;;-3.33;100.00
45541;BME280;31265;49.680;8.608;2024-01-15T01:46:27;99577.84;;;-3.27;100.00
45541;BME280;31265;49.680;8.608;2024-01-15T01:48:56;99586.78;;;-3.21;100.00
45541;BME280;31265;49.680;8.608;2024-01-15T01:51:26;99579.41;;;-3.15;100.00
45541;BME280;31265;49.680;8.608;2024-01-15T01:53:54;99579.09;;;-3.22;100.00
45541;BME280;31265;49.680;8.608;2024-01-15T01:56:24;99576.91;;;-3.18;100.00
45541;BME280;31265;49.680;8.608;2024-01-15T01:58:53;99577.91;;;-3.16;100.00
45541;BME280;31265;49.680;8.608;2024-01-15T02:01:22;99581.13;;;-3.12;100.00
45541;BME280;31265;49.680;8.608;2024-01-15T02:03:50;99574.25;;;-3.07;100.00
45541;BME280;31265;49.680;8.608;2024-01-15T02:06:19;99582.13;;;-3.09;100.00
45541;BME280;31265;49.680;8.608;2024-01-15T02:08:50;99575.97;;;-3.10;100.00
45541;BME280;31265;49.680;8.608;2024-01-15T02:11:18;99578.22;;;-3.08;100.00
45541;BME280;31265;49.680;8.608;2024-01-15T02:13:47;99583.19;;;-3.01;100.00
45541;BME280;31265;49.680;8.608;2024-01-15T02:16:16;99582.91;;;-3.03;100.00
45541;BME280;31265;49.680;8.608;2024-01-15T02:18:45;99582.66;;;-3.05;100.00
45541;BME280;31265;49.680;8.608;2024-01-15T02:21:15;99578.25;;;-2.97;100.00
45541;BME280;31265;49.680;8.608;2024-01-15T02:23:44;99569.59;;;-3.01;100.00
45541;BME280;31265;49.680;8.608;2024-01-15T02:26:14;99557.03;;;-2.98;100.00
45541;BME280;31265;49.680;8.608;2024-01-15T02:28:43;99580.03;;;-2.88;100.00
45541;BME280;31265;49.680;8.608;2024-01-15T02:31:14;99568.88;;;-3.01;100.00
45541;BME280;31265;49.680;8.608;2024-01-15T02:33:42;99556.25;;;-3.05;100.00
45541;BME280;31265;49.680;8.608;2024-01-15T02:36:13;99560.41;;;-3.09;100.00
45541;BME280;31265;49.680;8.608;2024-01-15T02:38:41;99579.94;;;-3.05;100.00
45541;BME280;31265;49.680;8.608;2024-01-15T02:41:11;99574.78;;;-2.97;100.00
45541;BME280;31265;49.680;8.608;2024-01-15T02:43:41;99569.16;;;-2.94;100.00
45541;BME280;31265;49.680;8.608;2024-01-15T02:46:09;99567.88;;;-2.98;100.00
45541;BME280;31265;49.680;8.608;2024-01-15T02:48:38;99566.91;;;-2.95;100.00
45541;BME280;31265;49.680;8.608;2024-01-15T02:51:07;99562.25;;;-2.89;100.00
45541;BME280;31265;49.680;8.608;2024-01-15T02:53:35;99560.50;;;-2.92;100.00
45541;BME280;31265;49.680;8.608;2024-01-15T02:56:04;99559.06;;;-2.82;100.00
45541;BME280;31265;49.680;8.608;2024-01-15T02:58:34;99556.13;;;-2.78;100.00
45541;BME280;31265;49.680;8.608;2024-01-15T03:01:03;99549.69;;;-2.81;100.00
45541;BME280;31265;49.680;8.608;2024-01-15T03:03:31;99557.31;;;-2.85;100.00
45541;BME280;31265;49.680;8.608;2024-01-15T03:06:01;99554.13;;;-2.89;100.00
45541;BME280;31265;49.680;8.608;2024-01-15T03:08:30;99549.63;;;-2.92;100.00
45541;BME280;31265;49.680;8.608;2024-01-15T03:10:58;99546.19;;;-2.87;100.00
45541;BME280;31265;49.680;8.608;2024-01-15T03:13:27;99550.16;;;-2.88;100.00
45541;BME280;31265;49.680;8.608;2024-01-15T03:15:57;99543.28;;;-2.84;100.00
45541;BME280;31265;49.680;8.608;2024-01-15T03:18:25;99550.41;;;-2.86;100.00
45541;BME280;31265;49.680;8.608;2024-01-15T03:20:54;99561.28;;;-2.86;100.00
45541;BME280;31265;49.680;8.608;2024-01-15T03:23:22;99545.47;;;-2.82;100.00
45541;BME280;31265;49.680;8.608;2024-01-15T03:25:51;99547.72;;;-2.86;100.00
45541;BME280;31265;49.680;8.608;2024-01-15T03:28:19;99545.97;;;-2.84;100.00
45541;BME280;31265;49.680;8.608;2024-01-15T03:30:48;99554.88;;;-2.83;100.00
45541;BME280;31265;49.680;8.608;2024-01-15T03:33:17;99551.44;;;-2.78;100.00
45541;BME280;31265;49.680;8.608;2024-01-15T03:35:46;99558.59;;;-2.75;100.00
45541;BME280;31265;49.680;8.608;2024-01-15T03:38:14;99548.25;;;-2.71;100.00
45541;BME280;31265;49.680;8.608;2024-01-15T03:40:43;99545.28;;;-2.67;100.00
45541;BME280;31265;49.680;8.608;2024-01-15T03:43:11;99552.22;;;-2.72;100.00
45541;BME280;31265;49.680;8.608;2024-01-15T03:45:39;99557.41;;;-2.63;100.00
45541;BME280;31265;49.680;8.608;2024-01-15T03:48:08;99562.09;;;-2.57;100.00
45541;BME280;31265;49.680;8.608;2024-01-15T03:50:38;99550.22;;;-2.71;100.00
45541;BME280;31265;49.680;8.608;2024-01-15T03:53:06;99545.00;;;-2.75;100.00
45541;BME280;31265;49.680;8.608;2024-01-15T03:55:35;99528.47;;;-2.77;100.00
45541;BME280;31265;49.680;8.608;2024-01-15T03:58:03;99525.53;;;-2.73;100.00
45541;BME280;31265;49.680;8.608;2024-01-15T04:00:31;99524.06;;;-2.63;100.00
45541;BME280;31265;49.680;8.608;2024-01-15T04:03:00;99518.63;;;-2.74;100.00
45541;BME280;31265;49.680;8.608;2024-01-15T04:05:29;99516.38;;;-2.76;100.00
45541;BME280;31265;49.680;8.608;2024-01-15T04:07:59;99511.19;;;-2.79;100.00
45541;BME280;31265;49.680;8.608;2024-01-15T04:10:27;99507.50;;;-2.76;100.00
45541;BME280;31265;49.680;8.608;2024-01-15T04:12:58;99510.47;;;-2.74;100.00
45541;BME280;31265;49.680;8.608;2024-01-15T04:15:29;99501.34;;;-2.71;100.00
45541;BME280;31265;49.680;8.608;2024-01-15T04:17:57;99500.09;;;-2.70;100.00
45541;BME280;31265;49.680;8.608;2024-01-15T04:20:26;99502.28;;;-2.86;100.00
45541;BME280;31265;49.680;8.608;2024-01-15T04:22:55;99502.03;;;-2.82;100.00
45541;BME280;31265;49.680;8.608;2024-01-15T04:25:24;99507.97;;;-2.78;100.00
45541;BME280;31265;49.680;8.608;2024-01-15T04:27:53;99508.97;;;-2.81;100.00
45541;BME280;31265;49.680;8.608;2024-01-15T04:30:21;99498.59;;;-2.77;100.00
45541;BME280;31265;49.680;8.608;2024-01-15T04:32:49;99489.50;;;-2.74;100.00
45541;BME280;31265;49.680;8.608;2024-01-15T04:35:18;99488.50;;;-2.76;100.00
45541;BME280;31265;49.680;8.608;2024-01-15T04:37:46;99479.84;;;-2.75;100.00
45541;BME280;31265;49.680;8.608;2024-01-15T04:40:15;99474.44;;;-2.69;100.00
45541;BME280;31265;49.680;8.608;2024-01-15T04:42:46;99475.91;;;-2.63;100.00
45541;BME280;31265;49.680;8.608;2024-01-15T04:45:14;99468.25;;;-2.70;100.00
45541;BME280;31265;49.680;8.608;2024-01-15T04:47:43;99478.16;;;-2.67;100.00
45541;BME280;31265;49.680;8.608;2024-01-15T04:50:12;99489.97;;;-2.70;100.00
45541;BME280;31265;49.680;8.608;2024-01-15T04:52:42;99495.91;;;-2.71;100.00
45541;BME280;31265;49.680;8.608;2024-01-15T04:55:11;99496.66;;;-2.71;100.00
45541;BME280;31265;49.680;8.608;2024-01-15T04:57:39;99498.63;;;-2.66;100.00
45541;BME280;31265;49.680;8.608;2024-01-15T05:00:11;99493.47;;;-2.58;100.00
45541;BME280;31265;49.680;8.608;2024-01-15T05:02:41;99484.81;;;-2.62;100.00
45541;BME280;31265;49.680;8.608;2024-01-15T05:05:09;99479.41;;;-2.56;100.00
45541;BME280;31265;49.680;8.608;2024-01-15T05:07:38;99481.09;;;-2.65;100.00
45541;BME280;31265;49.680;8.608;2024-01-15T05:10:07;99481.34;;;-2.63;100.00
45541;BME280;31265;49.680;8.608;2024-01-15T05:12:35;99475.91;;;-2.63;100.00
45541;BME280;31265;49.680;8.608;2024-01-15T05:15:04;99467.75;;;-2.63;100.00
45541;BME280;31265;49.680;8.608;2024-01-15T05:17:35;99478.38;;;-2.65;100.00
45541;BME280;31265;49.680;8.608;2024-01-15T05:20:04;99473.72;;;-2.64;100.00
45541;BME280;31265;49.680;8.608;2024-01-15T05:22:35;99477.41;;;-2.62;100.00
45541;BME280;31265;49.680;8.608;2024-01-15T05:25:04;99479.63;;;-2.60;100.00
45541;BME280;31265;49.680;8.608;2024-01-15T05:27:33;99481.34;;;-2.63;100.00
45541;BME280;31265;49.680;8.608;2024-01-15T05:30:02;99469.53;;;-2.60;100.00
45541;BME280;31265;49.680;8.608;2024-01-15T05:32:31;99459.63;;;-2.63;100.00
45541;BME280;31265;49.680;8.608;2024-01-15T05:35:00;99461.38;;;-2.54;100.00
45541;BME280;31265;49.680;8.608;2024-01-15T05:37:29;99445.81;;;-2.53;100.00
45541;BME280;31265;49.680;8.608;2024-01-15T05:39:58;99456.69;;;-2.53;100.00
45541;BME280;31265;49.680;8.608;2024-01-15T05:42:26;99456.69;;;-2.53;100.00
45541;BME280;31265;49.680;8.608;2024-01-15T05:44:57;99454.47;;;-2.44;100.00
45541;BME280;31265;49.680;8.608;2024-01-15T05:47:29;99454.94;;;-2.51;100.00
45541;BME280;31265;49.680;8.608;2024-01-15T05:49:58;99454.97;;;-2.34;100.00
45541;BME280;31265;49.680;8.608;2024-01-15T05:52:28;99468.78;;;-2.43;100.00
45541;BME280;31265;49.680;8.608;2024-01-15T05:54:56;99459.88;;;-2.38;100.00
45541;BME280;31265;49.680;8.608;2024-01-15T05:57:25;99457.94;;;-2.32;100.00
45541;BME280;31265;49.680;8.608;2024-01-15T05:59:53;99453.72;;;-2.44;100.00
45541;BME280;31265;49.680;8.608;2024-01-15T06:02:22;99464.09;;;-2.37;100.00
45541;BME280;31265;49.680;8.608;2024-01-15T06:04:50;99456.19;;;-2.35;100.00
45541;BME280;31265;49.680;8.608;2024-01-15T06:07:19;99453.72;;;-2.39;100.00
45541;BME280;31265;49.680;8.608;2024-01-15T06:09:48;99453.47;;;-2.29;100.00
45541;BME280;31265;49.680;8.608;2024-01-15T06:12:17;99450.28;;;-2.39;100.00
45541;BME280;31265;49.680;8.608;2024-01-15T06:14:45;99450.75;;;-2.35;100.00
45541;BME280;31265;49.680;8.608;2024-01-15T06:17:14;99459.16;;;-2.33;100.00
45541;BME280;31265;49.680;8.608;2024-01-15T06:19:42;99455.97;;;-2.37;100.00
45541;BME280;31265;49.680;8.608;2024-01-15T06:22:11;99454.97;;;-2.28;100.00
45541;BME280;31265;49.680;8.608;2024-01-15T06:24:39;99447.31;;;-2.30;100.00
45541;BME280;31265;49.680;8.608;2024-01-15T06:27:09;99457.41;;;-2.30;100.00
45541;BME280;31265;49.680;8.608;2024-01-15T06:29:38;99446.81;;;-2.28;100.00
45541;BME280;31265;49.680;8.608;2024-01-15T06:32:07;99453.22;;;-2.26;100.00
45541;BME280;31265;49.680;8.608;2024-01-15T06:34:35;99444.09;;;-2.28;100.00
45541;BME280;31265;49.680;8.608;2024-01-15T06:37:04;99455.22;;;-2.32;100.00
45541;BME280;31265;49.680;8.608;2024-01-15T06:39:33;99451.00;;;-2.22;100.00
45541;BME280;31265;49.680;8.608;2024-01-15T06:42:02;99445.31;;;-2.35;100.00
45541;BME280;31265;49.680;8.608;2024-01-15T06:44:32;99454.69;;;-2.30;100.00
45541;BME280;31265;49.680;8.608;2024-01-15T06:47:00;99460.66;;;-2.26;100.00
45541;BME280;31265;49.680;8.608;2024-01-15T06:49:29;99445.06;;;-2.26;100.00
45541;BME280;31265;49.680;8.608;2024-01-15T06:51:58;99446.06;;;-2.29;100.00
45541;BME280;31265;49.680;8.608;2024-01-15T06:54:26;99456.19;;;-2.24;100.00
45541;BME280;31265;49.680;8.608;2024-01-15T06:56:55;99448.78;;;-2.29;100.00
45541;BME280;31265;49.680;8.608;2024-01-15T06:59:23;99452.75;;;-2.24;100.00
45541;BME280;31265;49.680;8.608;2024-01-15T07:01:53;99443.34;;;-2.29;100.00
45541;BME280;31265;49.680;8.608;2024-01-15T07:04:22;99430.50;;;-2.23;100.00
45541;BME280;31265;49.680;8.608;2024-01-15T07:06:51;99436.69;;;-2.17;100.00
45541;BME280;31265;49.680;8.608;2024-01-15T07:09:19;99435.69;;;-2.19;100.00
45541;BME280;31265;49.680;8.608;2024-01-15T07:11:48;99440.63;;;-2.12;100.00
45541;BME280;31265;49.680;8.608;2024-01-15T07:14:16;99444.81;;;-2.17;100.00
45541;BME280;31265;49.680;8.608;2024-01-15T07:16:45;99444.31;;;-2.21;100.00
45541;BME280;31265;49.680;8.608;2024-01-15T07:19:16;99442.38;;;-2.14;100.00
45541;BME280;31265;49.680;8.608;2024-01-15T07:21:45;99435.91;;;-2.23;100.00
45541;BME280;31265;49.680;8.608;2024-01-15T07:24:14;99446.31;;;-2.16;100.00
45541;BME280;31265;49.680;8.608;2024-01-15T07:26:42;99446.81;;;-2.11;100.00
45541;BME280;31265;49.680;8.608;2024-01-15T07:29:11;99438.91;;;-2.09;100.00
45541;BME280;31265;49.680;8.608;2024-01-15T07:31:40;99451.75;;;-2.10;100.00
45541;BME280;31265;49.680;8.608;2024-01-15T07:34:09;99438.91;;;-2.09;100.00
45541;BME280;31265;49.680;8.608;2024-01-15T07:36:39;99442.59;;;-2.07;100.00
45541;BME280;31265;49.680;8.608;2024-01-15T07:39:08;99441.34;;;-1.89;100.00
45541;BME280;31265;49.680;8.608;2024-01-15T07:41:37;99440.84;;;-1.93;100.00
45541;BME280;31265;49.680;8.608;2024-01-15T07:44:06;99433.94;;;-1.94;100.00
45541;BME280;31265;49.680;8.608;2024-01-15T07:46:35;99436.91;;;-1.92;100.00
45541;BME280;31265;49.680;8.608;2024-01-15T07:49:03;99429.97;;;-1.99;100.00
45541;BME280;31265;49.680;8.608;2024-01-15T07:51:32;99433.69;;;-1.96;100.00
45541;BME280;31265;49.680;8.608;2024-01-15T07:54:02;99430.47;;;-1.95;100.00
45541;BME280;31265;49.680;8.608;2024-01-15T07:56:31;99426.97;;;-1.84;100.00
45541;BME280;31265;49.680;8.608;2024-01-15T07:59:00;99420.59;;;-1.92;100.00
45541;BME280;31265;49.680;8.608;2024-01-15T08:01:28;99429.00;;;-1.90;100.00
45541;BME280;31265;49.680;8.608;2024-01-15T08:03:57;99420.06;;;-1.90;100.00
45541;BME280;31265;49.680;8.608;2024-01-15T08:06:25;99424.75;;;-1.80;100.00
45541;BME280;31265;49.680;8.608;2024-01-15T08:08:54;99422.03;;;-1.80;100.00
45541;BME280;31265;49.680;8.608;2024-01-15T08:11:24;99423.25;;;-1.81;100.00
45541;BME280;31265;49.680;8.608;2024-01-15T08:13:53;99412.38;;;-1.81;100.00
45541;BME280;31265;49.680;8.608;2024-01-15T08:16:21;99412.63;;;-1.79;100.00
45541;BME280;31265;49.680;8.608;2024-01-15T08:18:51;99420.31;;;-1.77;100.00
45541;BME280;31265;49.680;8.608;2024-01-15T08:21:20;99416.34;;;-1.76;100.00
45541;BME280;31265;49.680;8.608;2024-01-15T08:23:48;99400.75;;;-1.76;100.00
45541;BME280;31265;49.680;8.608;2024-01-15T08:26:17;99406.19;;;-1.70;100.00
45541;BME280;31265;49.680;8.608;2024-01-15T08:28:47;99408.13;;;-1.59;100.00
45541;BME280;31265;49.680;8.608;2024-01-15T08:31:16;99420.72;;;-1.56;100.00
45541;BME280;31265;49.680;8.608;2024-01-15T08:33:44;99412.06;;;-1.55;100.00
45541;BME280;31265;49.680;8.608;2024-01-15T08:36:13;99415.53;;;-1.54;100.00
45541;BME280;31265;49.680;8.608;2024-01-15T08:38:42;99418.50;;;-1.52;100.00
45541;BME280;31265;49.680;8.608;2024-01-15T08:41:10;99421.69;;;-1.54;100.00
45541;BME280;31265;49.680;8.608;2024-01-15T08:43:38;99414.06;;;-1.55;100.00
45541;BME280;31265;49.680;8.608;2024-01-15T08:46:08;99421.19;;;-1.46;100.00
45541;BME280;31265;49.680;8.608;2024-01-15T08:48:37;99409.56;;;-1.47;100.00
45541;BME280;31265;49.680;8.608;2024-01-15T08:51:06;99410.50;;;-1.39;100.00
45541;BME280;31265;49.680;8.608;2024-01-15T08:53:36;99404.31;;;-1.34;100.00
45541;BME280;31265;49.680;8.608;2024-01-15T08:56:05;99404.75;;;-1.24;100.00
45541;BME280;31265;49.680;8.608;2024-01-15T08:58:35;99404.22;;;-1.11;100.00
45541;BME280;31265;49.680;8.608;2024-01-15T09:01:04;99396.06;;;-1.11;100.00
45541;BME280;31265;49.680;8.608;2024-01-15T09:03:34;99400.72;;;-1.12;100.00
45541;BME280;31265;49.680;8.608;2024-01-15T09:06:04;99397.19;;;-0.95;100.00
45541;BME280;31265;49.680;8.608;2024-01-15T09:08:33;99389.16;;;-0.82;100.00
45541;BME280;31265;49.680;8.608;2024-01-15T09:11:01;99399.63;;;-0.92;100.00
45541;BME280;31265;49.680;8.608;2024-01-15T09:13:31;99402.94;;;-1.04;100.00
45541;BME280;31265;49.680;8.608;2024-01-15T09:15:59;99398.44;;;-1.02;100.00
45541;BME280;31265;49.680;8.608;2024-01-15T09:18:28;99399.66;;;-0.97;100.00
45541;BME280;31265;49.680;8.608;2024-01-15T09:20:58;99396.69;;;-0.99;100.00
45541;BME280;31265;49.680;8.608;2024-01-15T09:23:27;99385.81;;;-0.94;100.00
45541;BME280;31265;49.680;8.608;2024-01-15T09:25:56;99403.25;;;-0.78;100.00
45541;BME280;31265;49.680;8.608;2024-01-15T09:28:24;99400.50;;;-0.72;100.00
45541;BME280;31265;49.680;8.608;2024-01-15T09:30:53;99416.84;;;-0.72;100.00
45541;BME280;31265;49.680;8.608;2024-01-15T09:33:22;99421.13;;;-0.82;100.00
45541;BME280;31265;49.680;8.608;2024-01-15T09:35:50;99418.03;;;-1.03;100.00
45541;BME280;31265;49.680;8.608;2024-01-15T09:38:21;99419.75;;;-1.00;100.00
45541;BME280;31265;49.680;8.608;2024-01-15T09:40:51;99427.47;;;-1.10;100.00
45541;BME280;31265;49.680;8.608;2024-01-15T09:43:20;99429.38;;;-0.99;100.00
45541;BME280;31265;49.680;8.608;2024-01-15T09:45:49;99411.09;;;-1.04;100.00
45541;BME280;31265;49.680;8.608;2024-01-15T09:48:19;99421.00;;;-1.01;100.00
45541;BME280;31265;49.680;8.608;2024-01-15T09:50:50;99414.03;;;-0.97;100.00
45541;BME280;31265;49.680;8.608;2024-01-15T09:53:21;99409.59;;;-1.00;100.00
45541;BME280;31265;49.680;8.608;2024-01-15T09:55:50;99414.25;;;-0.95;100.00
45541;BME280;31265;49.680;8.608;2024-01-15T09:58:18;99410.31;;;-0.94;100.00
45541;BME280;31265;49.680;8.608;2024-01-15T10:00:48;99406.63;;;-1.02;100.00
45541;BME280;31265;49.680;8.608;2024-01-15T10:03:17;99409.00;;;-0.87;100.00
45541;BME280;31265;49.680;8.608;2024-01-15T10:05:45;99403.56;;;-0.87;100.00
45541;BME280;31265;49.680;8.608;2024-01-15T10:08:14;99397.13;;;-0.84;100.00
45541;BME280;31265;49.680;8.608;2024-01-15T10:10:46;99384.25;;;-0.89;100.00
45541;BME280;31265;49.680;8.608;2024-01-15T10:13:15;99381.28;;;-0.85;100.00
45541;BME280;31265;49.680;8.608;2024-01-15T10:15:45;99387.47;;;-0.85;100.00
45541;BME280;31265;49.680;8.608;2024-01-15T10:18:14;99391.16;;;-0.82;100.00
45541;BME280;31265;49.680;8.608;2024-01-15T10:20:42;99398.72;;;-0.64;100.00
45541;BME280;31265;49.680;8.608;2024-01-15T10:23:11;99389.34;;;-0.74;100.00
45541;BME280;31265;49.680;8.608;2024-01-15T10:25:41;99388.97;;;-0.84;100.00
45541;BME280;31265;49.680;8.608;2024-01-15T10:28:13;99386.00;;;-0.86;100.00
45541;BME280;31265;49.680;8.608;2024-01-15T10:30:42;99378.34;;;-0.93;100.00
45541;BME280;31265;49.680;8.608;2024-01-15T10:33:11;99377.63;;;-0.94;100.00
45541;BME280;31265;49.680;8.608;2024-01-15T10:35:40;99372.88;;;-0.88;100.00
45541;BME280;31265;49.680;8.608;2024-01-15T10:38:09;99372.88;;;-0.88;100.00
45541;BME280;31265;49.680;8.608;2024-01-15T10:40:37;99372.88;;;-0.88;100.00
45541;BME280;31265;49.680;8.608;2024-01-15T10:43:06;99372.56;;;-0.78;100.00
45541;BME280;31265;49.680;8.608;2024-01-15T10:45:36;99361.84;;;-0.71;100.00
45541;BME280;31265;49.680;8.608;2024-01-15T10:48:05;99363.97;;;-0.58;100.00
45541;BME280;31265;49.680;8.608;2024-01-15T10:50:34;99362.22;;;-0.55;100.00
45541;BME280;31265;49.680;8.608;2024-01-15T10:53:04;99360.47;;;-0.53;100.00
45541;BME280;31265;49.680;8.608;2024-01-15T10:55:33;99346.59;;;-0.55;100.00
45541;BME280;31265;49.680;8.608;2024-01-15T10:58:06;99342.13;;;-0.52;100.00
45541;BME280;31265;49.680;8.608;2024-01-15T11:00:37;99336.34;;;-0.43;100.00
45541;BME280;31265;49.680;8.608;2024-01-15T11:03:06;99348.03;;;-0.48;100.00
45541;BME280;31265;49.680;8.608;2024-01-15T11:05:37;99349.50;;;-0.47;100.00
45541;BME280;31265;49.680;8.608;2024-01-15T11:08:06;99330.97;;;-0.49;100.00
45541;BME280;31265;49.680;8.608;2024-01-15T11:10:38;99341.16;;;-0.55;100.00
45541;BME280;31265;49.680;8.608;2024-01-15T11:13:10;99341.63;;;-0.51;100.00
45541;BME280;31265;49.680;8.608;2024-01-15T11:16:02;99350.59;;;-0.56;100.00
45541;BME280;31265;49.680;8.608;2024-01-15T11:18:31;99347.63;;;-0.58;100.00
45541;BME280;31265;49.680;8.608;2024-01-15T11:21:21;99354.09;;;-0.61;100.00
45541;BME280;31265;49.680;8.608;2024-01-15T11:23:54;99347.06;;;-0.51;100.00
45541;BME280;31265;49.680;8.608;2024-01-15T11:26:33;99333.06;;;-0.36;100.00
45541;BME280;31265;49.680;8.608;2024-01-15T11:29:03;99342.44;;;-0.31;100.00
45541;BME280;31265;49.680;8.608;2024-01-15T11:32:00;99342.44;;;-0.31;100.00
45541;BME280;31265;49.680;8.608;2024-01-15T11:34:51;99346.41;;;-0.32;100.00
45541;BME280;31265;49.680;8.608;2024-01-15T11:37:21;99344.94;;;-0.33;100.00
45541;BME280;31265;49.680;8.608;2024-01-15T11:39:52;99352.63;;;-0.32;100.00
45541;BME280;31265;49.680;8.608;2024-01-15T11:42:22;99352.63;;;-0.32;100.00
45541;BME280;31265;49.680;8.608;2024-01-15T11:44:52;99352.78;;;-0.24;100.00
45541;BME280;31265;49.680;8.608;2024-01-15T11:48:00;99353.47;;;-0.18;100.00
45541;BME280;31265;49.680;8.608;2024-01-15T11:50:39;99353.97;;;-0.19;100.00
45541;BME280;31265;49.680;8.608;2024-01-15T11:53:17;99349.03;;;-0.21;100.00
45541;BME280;31265;49.680;8.608;2024-01-15T11:55:51;99339.81;;;-0.18;100.00
45541;BME280;31265;49.680;8.608;2024-01-15T11:58:20;99346.47;;;-0.13;100.00
45541;BME280;31265;49.680;8.608;2024-01-15T12:00:51;99344.84;;;0.03;100.00
45541;BME280;31265;49.680;8.608;2024-01-15T12:03:22;99343.66;;;0.17;100.00
45541;BME280;31265;49.680;8.608;2024-01-15T12:05:52;99337.72;;;0.18;100.00
45541;BME280;31265;49.680;8.608;2024-01-15T12:08:22;99340.38;;;0.24;100.00
45541;BME280;31265;49.680;8.608;2024-01-15T12:10:51;99332.84;;;0.30;100.00
45541;BME280;31265;49.680;8.608;2024-01-15T12:13:20;99337.34;;;0.47;100.00
45541;BME280;31265;49.680;8.608;2024-01-15T12:15:49;99337.59;;;0.49;100.00
45541;BME280;31265;49.680;8.608;2024-01-15T12:18:18;99335.53;;;0.55;100.00
45541;BME280;31265;49.680;8.608;2024-01-15T12:20:49;99347.63;;;0.78;100.00
45541;BME280;31265;49.680;8.608;2024-01-15T12:23:17;99334.09;;;0.86;100.00
45541;BME280;31265;49.680;8.608;2024-01-15T12:25:46;99337.09;;;1.01;100.00
45541;BME280;31265;49.680;8.608;2024-01-15T12:28:16;99333.97;;;1.11;100.00
45541;BME280;31265;49.680;8.608;2024-01-15T12:30:46;99328.25;;;1.27;100.00
45541;BME280;31265;49.680;8.608;2024-01-15T12:33:18;99321.78;;;1.44;100.00
45541;BME280;31265;49.680;8.608;2024-01-15T12:35:48;99328.81;;;1.39;100.00
45541;BME280;31265;49.680;8.608;2024-01-15T12:38:18;99323.47;;;1.47;100.00
45541;BME280;31265;49.680;8.608;2024-01-15T12:40:48;99313.16;;;1.53;100.00
45541;BME280;31265;49.680;8.608;2024-01-15T12:43:18;99312.03;;;1.62;100.00
45541;BME280;31265;49.680;8.608;2024-01-15T12:45:47;99317.91;;;1.53;100.00
45541;BME280;31265;49.680;8.608;2024-01-15T12:48:15;99327.28;;;1.57;100.00
45541;BME280;31265;49.680;8.608;2024-01-15T12:50:55;99333.97;;;1.43;100.00
45541;BME280;31265;49.680;8.608;2024-01-15T12:53:23;99332.94;;;1.46;100.00
45541;BME280;31265;49.680;8.608;2024-01-15T12:55:52;99337.53;;;1.38;100.00
45541;BME280;31265;49.680;8.608;2024-01-15T12:58:20;99327.66;;;1.35;100.00
45541;BME280;31265;49.680;8.608;2024-01-15T13:00:49;99331.81;;;1.22;100.00
45541;BME280;31265;49.680;8.608;2024-01-15T13:03:18;99332.88;;;1.19;100.00